This is the latest recevied weather packets stored in our database for station/object N5AEH. If no packets are shown the sender has not sent any weather packets the latest 1 day(s).
| Time | Temp. | Humidity | Pressure | Rain* | Wind** | Luminosity | Snow |
|---|---|---|---|---|---|---|---|
| 1778002763 | 29.44° C | 33% | 1008.1 hPa | 0 mm | 0 m/s | 970 W/m² | - |
| 1778002460 | 28.89° C | 34% | 1007.9 hPa | 0 mm | 0.45 m/s, 259° | 940 W/m² | - |
| 1778002157 | 29.44° C | 33% | 1007.5 hPa | 0 mm | 0.45 m/s, 216° | 255 W/m² | - |
| 1778001855 | 30° C | 31% | 1008 hPa | 0 mm | 0.45 m/s, 151° | 904 W/m² | - |
| 1778001554 | 30° C | 32% | 1008.3 hPa | 0 mm | 0.45 m/s, 206° | 867 W/m² | - |
| 1778001251 | 29.44° C | 32% | 1008.1 hPa | 0 mm | 0.45 m/s, 264° | 847 W/m² | - |
| 1778000948 | 29.44° C | 31% | 1008.3 hPa | 0 mm | 0.45 m/s, 179° | 866 W/m² | - |
| 1778000645 | 29.44° C | 32% | 1008.4 hPa | 0 mm | 0.45 m/s, 238° | 853 W/m² | - |
| 1778000340 | 30° C | 31% | 1008.3 hPa | 0 mm | 0.45 m/s, 239° | 873 W/m² | - |
| 1778000036 | 30° C | 31% | 1008.5 hPa | 0 mm | 0.45 m/s, 234° | 818 W/m² | - |
| 1777999732 | 28.89° C | 34% | 1008.1 hPa | 0 mm | 0 m/s | 715 W/m² | - |
| 1777999428 | 28.33° C | 34% | 1008.4 hPa | 0 mm | 0.89 m/s, 246° | 654 W/m² | - |
| 1777999127 | 27.78° C | 36% | 1008.5 hPa | 0 mm | 0.89 m/s, 232° | 645 W/m² | - |
| 1777998825 | 28.33° C | 36% | 1008.5 hPa | 0 mm | 0.45 m/s, 121° | 790 W/m² | - |
| 1777998524 | 28.33° C | 35% | 1008.5 hPa | 0 mm | 0.89 m/s, 222° | 667 W/m² | - |
| 1777998219 | 27.78° C | 37% | 1008.9 hPa | 0 mm | 0 m/s | 682 W/m² | - |
| 1777997917 | 26.67° C | 38% | 1009.3 hPa | 0 mm | 1.34 m/s, 220° | 770 W/m² | - |
| 1777997614 | 26.67° C | 39% | 1009.1 hPa | 0 mm | 0.45 m/s, 219° | 721 W/m² | - |
| 1777997311 | 25.56° C | 42% | 1009.3 hPa | 0 mm | 0.89 m/s, 228° | 371 W/m² | - |
| 1777997009 | 26.67° C | 39% | 1009.5 hPa | 0 mm | 1.79 m/s, 246° | 503 W/m² | - |
| 1777996705 | 26.67° C | 39% | 1009.6 hPa | 0 mm | 0 m/s | 384 W/m² | - |
| 1777996401 | 26.67° C | 40% | 1009.6 hPa | 0 mm | 1.34 m/s, 77° | 612 W/m² | - |
| 1777996098 | 27.78° C | 39% | 1009.7 hPa | 0 mm | 0.45 m/s, 233° | 535 W/m² | - |
| 1777995794 | 27.22° C | 38% | 1009.9 hPa | 0 mm | 0 m/s | 284 W/m² | - |
| 1777995490 | 26.67° C | 39% | 1009.6 hPa | 0 mm | 0.45 m/s, 235° | 462 W/m² | - |
* Rain latest hour (hover to see other rain measurements)
** Current wind speed in m/s (hover to see current wind gust speed)